Time;durP1;ratioP1;P1;durP2;ratioP2;P2;SDS_P1;SDS_P2;PMS_P1;PMS_P2;Temp;Humidity;BMP_temperature;BMP_pressure;BME280_temperature;BME280_humidity;BME280_pressure;Samples;Min_cycle;Max_cycle;Signal;HPM_P1;HPM_P2
2022/09/29 00:01:22;;;;;;;1.08;0.40;;;;;;;;;;7394000;19;20346;-77
2022/09/29 00:03:47;;;;;;;0.75;0.50;;;;;;;;;;7393286;19;20016;-78
2022/09/29 00:06:16;;;;;;;0.50;0.50;;;;;;;;;;7393090;19;20062;-78
2022/09/29 00:08:42;;;;;;;0.25;0.25;;;;;;;;;;7393899;19;20012;-78
2022/09/29 00:11:08;;;;;;;1.02;0.47;;;;;;;;;;7395756;19;20677;-78
2022/09/29 00:13:34;;;;;;;1.58;0.80;;;;;;;;;;7395926;19;20070;-78
2022/09/29 00:16:01;;;;;;;0.80;0.70;;;;;;;;;;7393397;19;20027;-78
2022/09/29 00:18:28;;;;;;;0.90;0.63;;;;;;;;;;7394462;19;19998;-78
2022/09/29 00:21:19;;;;;;;1.63;0.85;;;;;;;;;;7395168;19;20473;-77
2022/09/29 00:23:46;;;;;;;0.65;0.60;;;;;;;;;;7394007;19;20007;-77
2022/09/29 00:26:18;;;;;;;0.63;0.52;;;;;;;;;;7393096;19;20022;-78
2022/09/29 00:29:01;;;;;;;0.65;0.52;;;;;;;;;;7393922;19;20435;-77
2022/09/29 00:31:30;;;;;;;0.85;0.68;;;;;;;;;;7392449;19;20139;-78
2022/09/29 00:33:56;;;;;;;0.50;0.50;;;;;;;;;;7391425;19;19995;-78
2022/09/29 00:36:22;;;;;;;0.50;0.50;;;;;;;;;;7389803;19;20006;-77
2022/09/29 00:38:51;;;;;;;0.80;0.57;;;;;;;;;;7392292;19;20025;-77
2022/09/29 00:41:23;;;;;;;1.05;0.70;;;;;;;;;;7393976;19;20010;-77
2022/09/29 00:44:01;;;;;;;0.60;0.50;;;;;;;;;;7393385;19;20048;-78
2022/09/29 00:46:30;;;;;;;1.33;0.55;;;;;;;;;;7392861;19;20031;-78
2022/09/29 00:48:59;;;;;;;0.93;0.70;;;;;;;;;;7393834;19;20015;-77
2022/09/29 00:51:26;;;;;;;0.88;0.65;;;;;;;;;;7392640;19;20014;-78
2022/09/29 00:53:52;;;;;;;2.22;0.50;;;;;;;;;;7393841;19;20029;-77
2022/09/29 00:56:18;;;;;;;0.60;0.47;;;;;;;;;;7392023;19;20340;-77
2022/09/29 00:58:58;;;;;;;0.40;0.30;;;;;;;;;;7391320;19;20006;-78
2022/09/29 01:01:27;;;;;;;0.45;0.45;;;;;;;;;;7391727;19;20122;-77
2022/09/29 01:03:57;;;;;;;1.48;0.65;;;;;;;;;;7393245;19;20053;-77
2022/09/29 01:06:32;;;;;;;3.80;0.50;;;;;;;;;;7392601;19;20017;-77
2022/09/29 01:09:07;;;;;;;0.70;0.40;;;;;;;;;;7393518;19;19995;-78
2022/09/29 01:11:34;;;;;;;0.80;0.47;;;;;;;;;;7391999;19;20022;-78
2022/09/29 01:14:03;;;;;;;0.45;0.45;;;;;;;;;;7392812;19;20006;-78
2022/09/29 01:16:33;;;;;;;0.50;0.50;;;;;;;;;;7390479;19;20013;-78
2022/09/29 01:19:01;;;;;;;0.50;0.50;;;;;;;;;;7391739;19;20087;-78
2022/09/29 01:21:50;;;;;;;0.50;0.50;;;;;;;;;;7390459;19;20020;-78
2022/09/29 01:24:29;;;;;;;1.05;0.40;;;;;;;;;;7392870;19;20007;-78
2022/09/29 01:26:57;;;;;;;0.75;0.55;;;;;;;;;;7393755;19;20031;-77
2022/09/29 01:29:40;;;;;;;0.85;0.60;;;;;;;;;;7392182;19;20006;-77
2022/09/29 01:32:18;;;;;;;2.50;0.63;;;;;;;;;;7389665;19;20006;-78
2022/09/29 01:35:05;;;;;;;0.65;0.60;;;;;;;;;;7392792;19;20015;-79
2022/09/29 01:37:36;;;;;;;0.57;0.50;;;;;;;;;;7393977;19;20003;-78
2022/09/29 01:40:10;;;;;;;0.50;0.50;;;;;;;;;;7392847;19;20025;-78
2022/09/29 01:42:43;;;;;;;0.45;0.45;;;;;;;;;;7390275;19;19997;-77
2022/09/29 01:45:11;;;;;;;0.73;0.50;;;;;;;;;;7394471;19;20326;-78
2022/09/29 01:47:40;;;;;;;0.70;0.52;;;;;;;;;;7397346;19;19999;-77
2022/09/29 01:50:38;;;;;;;0.70;0.70;;;;;;;;;;7399301;19;20496;-78
2022/09/29 01:53:09;;;;;;;0.47;0.47;;;;;;;;;;7398979;19;20035;-78
2022/09/29 01:55:40;;;;;;;0.70;0.50;;;;;;;;;;7397982;19;20011;-77
2022/09/29 01:58:09;;;;;;;0.82;0.60;;;;;;;;;;7400453;19;20010;-77
2022/09/29 02:00:42;;;;;;;0.30;0.30;;;;;;;;;;7400334;19;20033;-77
2022/09/29 02:03:21;;;;;;;0.22;0.22;;;;;;;;;;7399435;19;20838;-77
2022/09/29 02:05:50;;;;;;;0.60;0.60;;;;;;;;;;7395161;19;20010;-78
2022/09/29 02:08:26;;;;;;;0.43;0.43;;;;;;;;;;7397952;19;20616;-78
2022/09/29 02:11:11;;;;;;;0.38;0.38;;;;;;;;;;7399408;19;20070;-77
2022/09/29 02:13:42;;;;;;;;;;;;;;;;;;7396316;19;20510;-78
2022/09/29 02:16:13;;;;;;;0.50;0.50;;;;;;;;;;7396434;19;20240;-78
2022/09/29 02:18:51;;;;;;;0.82;0.40;;;;;;;;;;7396185;19;20530;-78
2022/09/29 02:21:16;;;;;;;1.45;0.55;;;;;;;;;;7395681;19;20400;-78
2022/09/29 02:23:42;;;;;;;0.50;0.50;;;;;;;;;;7395945;19;20448;-77
2022/09/29 02:26:09;;;;;;;1.10;0.93;;;;;;;;;;7395033;19;20070;-77
2022/09/29 02:28:35;;;;;;;24.73;1.42;;;;;;;;;;7400598;19;20022;-77
2022/09/29 02:31:01;;;;;;;0.50;0.50;;;;;;;;;;7398924;19;20334;-77
2022/09/29 02:33:26;;;;;;;1.35;0.38;;;;;;;;;;7395851;19;20315;-78
2022/09/29 02:36:26;;;;;;;1.15;0.30;;;;;;;;;;7393247;19;19994;-78
2022/09/29 02:39:07;;;;;;;0.55;0.40;;;;;;;;;;7398092;19;20010;-78
2022/09/29 02:41:49;;;;;;;0.43;0.40;;;;;;;;;;7394927;19;20456;-77
2022/09/29 02:44:29;;;;;;;0.50;0.50;;;;;;;;;;7394316;19;20455;-78
2022/09/29 02:47:25;;;;;;;0.93;0.50;;;;;;;;;;7396754;19;20351;-77
2022/09/29 02:50:12;;;;;;;0.57;0.57;;;;;;;;;;7394847;19;20074;-77
2022/09/29 02:52:47;;;;;;;0.50;0.50;;;;;;;;;;7397605;19;20069;-77
2022/09/29 02:55:18;;;;;;;0.67;0.67;;;;;;;;;;7392201;19;20459;-77
2022/09/29 02:57:52;;;;;;;0.43;0.43;;;;;;;;;;7395383;19;20003;-78
2022/09/29 03:00:19;;;;;;;0.77;0.68;;;;;;;;;;7398582;19;20436;-77
2022/09/29 03:02:44;;;;;;;0.30;0.30;;;;;;;;;;7396779;19;20006;-77
2022/09/29 03:05:15;;;;;;;0.40;0.40;;;;;;;;;;7397311;19;20039;-77
2022/09/29 03:07:41;;;;;;;1.35;0.43;;;;;;;;;;7394083;19;20856;-77
2022/09/29 03:10:09;;;;;;;0.30;0.30;;;;;;;;;;7394402;19;20027;-78
2022/09/29 03:12:34;;;;;;;0.77;0.50;;;;;;;;;;7393963;19;20378;-77
2022/09/29 03:15:00;;;;;;;0.35;0.32;;;;;;;;;;7395635;19;20476;-77
2022/09/29 03:17:25;;;;;;;0.60;0.52;;;;;;;;;;7394775;19;20015;-77
2022/09/29 03:19:51;;;;;;;0.40;0.40;;;;;;;;;;7394647;19;20352;-77
2022/09/29 03:22:17;;;;;;;0.50;0.40;;;;;;;;;;7398187;19;20010;-77
2022/09/29 03:24:43;;;;;;;0.35;0.35;;;;;;;;;;7394129;19;20010;-78
2022/09/29 03:27:08;;;;;;;0.70;0.55;;;;;;;;;;7396343;19;20030;-77
2022/09/29 03:29:34;;;;;;;0.30;0.30;;;;;;;;;;7397867;19;20479;-78
2022/09/29 03:32:00;;;;;;;0.43;0.43;;;;;;;;;;7394018;19;20003;-77
2022/09/29 03:34:25;;;;;;;2.70;0.50;;;;;;;;;;7393893;19;19994;-77
2022/09/29 03:36:50;;;;;;;0.60;0.60;;;;;;;;;;7396073;19;20006;-78
2022/09/29 03:39:16;;;;;;;0.52;0.50;;;;;;;;;;7396658;19;20011;-77
2022/09/29 03:41:41;;;;;;;0.70;0.40;;;;;;;;;;7394983;19;20006;-77
2022/09/29 03:44:06;;;;;;;0.47;0.47;;;;;;;;;;7396604;19;20480;-78
2022/09/29 03:46:32;;;;;;;0.90;0.40;;;;;;;;;;7391600;19;20003;-78
2022/09/29 03:48:57;;;;;;;0.52;0.52;;;;;;;;;;7393202;19;20389;-77
2022/09/29 03:51:22;;;;;;;0.52;0.50;;;;;;;;;;7393152;19;20001;-77
2022/09/29 03:53:47;;;;;;;2.08;0.40;;;;;;;;;;7395975;19;20010;-77
2022/09/29 03:56:13;;;;;;;2.28;0.55;;;;;;;;;;7395295;19;20337;-77
2022/09/29 03:58:39;;;;;;;0.70;0.55;;;;;;;;;;7393507;19;20333;-77
2022/09/29 04:01:04;;;;;;;1.02;0.95;;;;;;;;;;7395670;19;20419;-77
2022/09/29 04:03:29;;;;;;;1.23;0.50;;;;;;;;;;7397079;19;19994;-78
2022/09/29 04:05:55;;;;;;;0.70;0.57;;;;;;;;;;7390352;19;20009;-78
2022/09/29 04:08:20;;;;;;;0.60;0.60;;;;;;;;;;7395549;19;20017;-77
2022/09/29 04:10:46;;;;;;;1.45;0.82;;;;;;;;;;7395627;19;19991;-78
2022/09/29 04:13:12;;;;;;;0.63;0.63;;;;;;;;;;7394682;19;20003;-78
2022/09/29 04:15:37;;;;;;;0.60;0.50;;;;;;;;;;7394857;19;20006;-77
2022/09/29 04:18:03;;;;;;;0.55;0.52;;;;;;;;;;7394539;19;20006;-77
2022/09/29 04:20:28;;;;;;;2.72;0.30;;;;;;;;;;7392127;19;20066;-77
2022/09/29 04:22:53;;;;;;;0.63;0.40;;;;;;;;;;7392937;19;20003;-77
2022/09/29 04:25:19;;;;;;;0.52;0.52;;;;;;;;;;7393435;19;20013;-77
2022/09/29 04:27:44;;;;;;;4.32;0.75;;;;;;;;;;7394309;19;20005;-77
2022/09/29 04:30:10;;;;;;;0.93;0.70;;;;;;;;;;7390994;19;19995;-78
2022/09/29 04:32:36;;;;;;;0.77;0.60;;;;;;;;;;7392838;19;20002;-78
2022/09/29 04:35:01;;;;;;;1.05;0.70;;;;;;;;;;7392842;19;20003;-77
2022/09/29 04:37:27;;;;;;;3.55;0.93;;;;;;;;;;7394360;19;20006;-77
2022/09/29 04:39:53;;;;;;;1.20;1.10;;;;;;;;;;7393159;19;20017;-77
2022/09/29 04:42:19;;;;;;;1.00;0.90;;;;;;;;;;7394569;19;20488;-77
2022/09/29 04:44:45;;;;;;;1.77;1.27;;;;;;;;;;7393278;19;20319;-77
2022/09/29 04:47:10;;;;;;;0.73;0.70;;;;;;;;;;7389333;19;20014;-77
2022/09/29 04:49:36;;;;;;;1.23;0.80;;;;;;;;;;7389273;19;20006;-77
2022/09/29 04:52:02;;;;;;;2.35;0.90;;;;;;;;;;7387321;19;20045;-77
2022/09/29 04:54:32;;;;;;;1.13;0.90;;;;;;;;;;7387152;19;20014;-77
2022/09/29 04:56:57;;;;;;;0.63;0.60;;;;;;;;;;7388850;19;20042;-79
2022/09/29 04:59:23;;;;;;;0.60;0.60;;;;;;;;;;7389112;19;20332;-77
2022/09/29 05:01:48;;;;;;;1.15;0.80;;;;;;;;;;7389058;19;20006;-77
2022/09/29 05:04:14;;;;;;;0.77;0.77;;;;;;;;;;7389618;19;20010;-78
2022/09/29 05:06:39;;;;;;;1.48;0.93;;;;;;;;;;7387996;19;20014;-77
2022/09/29 05:09:05;;;;;;;1.10;0.73;;;;;;;;;;7391984;19;20056;-77
2022/09/29 05:11:30;;;;;;;0.70;0.70;;;;;;;;;;7385908;19;20476;-77
2022/09/29 05:13:56;;;;;;;3.72;0.95;;;;;;;;;;7390195;19;20031;-77
2022/09/29 05:16:22;;;;;;;1.20;0.75;;;;;;;;;;7390270;19;20002;-78
2022/09/29 05:18:47;;;;;;;3.80;2.25;;;;;;;;;;7390349;19;20006;-77
2022/09/29 05:21:12;;;;;;;2.65;1.40;;;;;;;;;;7390104;19;20014;-78
2022/09/29 05:23:38;;;;;;;2.25;1.25;;;;;;;;;;7390738;19;20014;-78
2022/09/29 05:26:05;;;;;;;3.58;1.63;;;;;;;;;;7388870;19;20011;-78
2022/09/29 05:28:31;;;;;;;1.23;1.10;;;;;;;;;;7388636;19;20010;-77
2022/09/29 05:31:01;;;;;;;4.35;3.20;;;;;;;;;;7390609;19;20019;-78
2022/09/29 05:33:26;;;;;;;2.30;1.50;;;;;;;;;;7392678;19;20006;-79
2022/09/29 05:35:52;;;;;;;1.30;1.10;;;;;;;;;;7383465;19;20026;-78
2022/09/29 05:38:17;;;;;;;3.63;1.10;;;;;;;;;;7387041;19;20074;-77
2022/09/29 05:40:42;;;;;;;1.05;0.80;;;;;;;;;;7386382;19;20014;-77
2022/09/29 05:43:07;;;;;;;0.80;0.80;;;;;;;;;;7389038;19;20031;-78
2022/09/29 05:45:33;;;;;;;1.25;0.80;;;;;;;;;;7386986;19;20014;-77
2022/09/29 05:47:58;;;;;;;0.60;0.60;;;;;;;;;;7385137;19;19995;-77
2022/09/29 05:50:30;;;;;;;0.88;0.80;;;;;;;;;;7389199;19;20343;-77
2022/09/29 05:52:55;;;;;;;1.10;0.70;;;;;;;;;;7387558;19;20815;-77
2022/09/29 05:55:33;;;;;;;1.00;1.00;;;;;;;;;;7386740;19;20126;-77
2022/09/29 05:57:58;;;;;;;0.88;0.75;;;;;;;;;;7388372;19;20010;-78
2022/09/29 06:00:24;;;;;;;1.17;0.77;;;;;;;;;;7383973;19;20010;-78
2022/09/29 06:02:49;;;;;;;1.13;0.80;;;;;;;;;;7391117;19;20013;-77
2022/09/29 06:05:14;;;;;;;1.70;1.00;;;;;;;;;;7391159;19;20002;-77
2022/09/29 06:07:40;;;;;;;2.83;1.58;;;;;;;;;;7392002;19;20013;-77
2022/09/29 06:10:05;;;;;;;2.50;1.60;;;;;;;;;;7389602;19;20006;-77
2022/09/29 06:12:36;;;;;;;2.30;1.75;;;;;;;;;;7393263;19;20002;-77
2022/09/29 06:15:04;;;;;;;3.03;1.77;;;;;;;;;;7388848;19;20014;-78
2022/09/29 06:17:29;;;;;;;1.90;1.40;;;;;;;;;;7387153;19;20010;-77
2022/09/29 06:19:54;;;;;;;4.20;1.27;;;;;;;;;;7387228;19;20133;-78
2022/09/29 06:22:20;;;;;;;3.60;1.83;;;;;;;;;;7384849;19;20337;-78
2022/09/29 06:24:45;;;;;;;6.18;1.92;;;;;;;;;;7385731;19;20017;-76
2022/09/29 06:27:10;;;;;;;4.75;2.50;;;;;;;;;;7384370;19;20006;-77
2022/09/29 06:29:36;;;;;;;10.45;3.55;;;;;;;;;;7388165;19;20009;-77
2022/09/29 06:32:02;;;;;;;8.50;2.55;;;;;;;;;;7396796;19;20034;-78
2022/09/29 06:34:27;;;;;;;14.50;6.25;;;;;;;;;;7396652;19;20112;-78
2022/09/29 06:39:37;;;;;;;3.72;1.80;;;;;;;;;;7396287;19;20488;-77
2022/09/29 06:42:03;;;;;;;2.47;1.10;;;;;;;;;;7392441;19;20006;-77
2022/09/29 06:44:29;;;;;;;2.58;0.90;;;;;;;;;;7396430;19;20094;-77
2022/09/29 06:46:55;;;;;;;1.35;0.95;;;;;;;;;;7397943;19;20010;-77
2022/09/29 06:49:21;;;;;;;0.80;0.80;;;;;;;;;;7388045;19;20017;-76
2022/09/29 06:51:47;;;;;;;1.10;1.00;;;;;;;;;;7395367;19;20006;-77
2022/09/29 06:54:15;;;;;;;2.95;1.33;;;;;;;;;;7395992;19;20010;-75
2022/09/29 06:56:41;;;;;;;2.28;1.40;;;;;;;;;;7381096;19;20027;-78
2022/09/29 06:59:07;;;;;;;1.77;1.38;;;;;;;;;;7395328;19;20839;-76
2022/09/29 07:01:33;;;;;;;2.55;1.60;;;;;;;;;;7396705;19;20002;-73
2022/09/29 07:04:01;;;;;;;1.60;1.50;;;;;;;;;;7389267;19;20455;-74
2022/09/29 07:06:28;;;;;;;1.38;1.20;;;;;;;;;;7392719;19;20636;-74
2022/09/29 07:08:57;;;;;;;1.42;1.20;;;;;;;;;;7396750;19;19998;-75
2022/09/29 07:11:23;;;;;;;2.70;1.35;;;;;;;;;;7394227;19;20011;-76
2022/09/29 07:13:50;;;;;;;1.95;1.40;;;;;;;;;;7394851;19;19999;-77
2022/09/29 07:16:16;;;;;;;1.92;1.50;;;;;;;;;;7391691;19;20010;-76
2022/09/29 07:18:42;;;;;;;2.22;1.40;;;;;;;;;;7393131;19;20358;-76
2022/09/29 07:21:10;;;;;;;4.07;1.50;;;;;;;;;;7390883;19;20014;-76
2022/09/29 07:23:36;;;;;;;3.17;1.17;;;;;;;;;;7398977;19;20077;-78
2022/09/29 07:26:03;;;;;;;1.75;1.38;;;;;;;;;;7406939;19;20090;-79
2022/09/29 07:28:29;;;;;;;2.47;1.20;;;;;;;;;;7398583;19;20003;-77
2022/09/29 07:31:06;;;;;;;1.55;1.27;;;;;;;;;;7395006;19;20014;-74
2022/09/29 07:33:32;;;;;;;1.52;1.13;;;;;;;;;;7397279;19;20013;-72
2022/09/29 07:35:59;;;;;;;1.63;1.20;;;;;;;;;;7392113;19;20010;-74
2022/09/29 07:38:25;;;;;;;1.20;1.00;;;;;;;;;;7390921;19;20014;-72
2022/09/29 07:40:51;;;;;;;1.17;1.05;;;;;;;;;;7393388;19;20014;-74
2022/09/29 07:43:16;;;;;;;1.88;1.13;;;;;;;;;;7396097;19;20480;-74
2022/09/29 07:45:49;;;;;;;1.10;0.90;;;;;;;;;;7392277;19;20010;-74
2022/09/29 07:48:14;;;;;;;1.10;1.00;;;;;;;;;;7394421;19;20010;-73
2022/09/29 07:50:40;;;;;;;0.95;0.88;;;;;;;;;;7396996;19;20342;-74
2022/09/29 07:53:06;;;;;;;2.88;1.02;;;;;;;;;;7392389;19;20436;-74
2022/09/29 07:55:31;;;;;;;1.25;1.15;;;;;;;;;;7391488;19;20111;-73
2022/09/29 07:57:56;;;;;;;1.55;1.40;;;;;;;;;;7395071;19;20022;-73
2022/09/29 08:00:22;;;;;;;2.58;1.15;;;;;;;;;;7394687;19;19998;-77
2022/09/29 08:02:47;;;;;;;1.13;1.02;;;;;;;;;;7394752;19;20499;-73
2022/09/29 08:05:12;;;;;;;1.67;1.10;;;;;;;;;;7391377;19;20021;-74
2022/09/29 08:07:37;;;;;;;1.60;1.30;;;;;;;;;;7386251;19;20470;-74
2022/09/29 08:10:04;;;;;;;1.13;1.02;;;;;;;;;;7387908;19;20472;-73
2022/09/29 08:12:29;;;;;;;1.60;1.13;;;;;;;;;;7395595;19;20444;-73
2022/09/29 08:14:54;;;;;;;2.70;0.98;;;;;;;;;;7393759;19;20010;-73
2022/09/29 08:17:20;;;;;;;1.58;1.00;;;;;;;;;;7393753;19;20338;-75
2022/09/29 08:19:45;;;;;;;1.10;1.00;;;;;;;;;;7392499;19;20010;-72
2022/09/29 08:22:10;;;;;;;0.90;0.90;;;;;;;;;;7394488;19;20010;-72
2022/09/29 08:24:36;;;;;;;2.28;1.10;;;;;;;;;;7391752;19;20013;-73
2022/09/29 08:27:04;;;;;;;1.60;0.80;;;;;;;;;;7393372;19;20006;-73
2022/09/29 08:29:29;;;;;;;1.65;0.90;;;;;;;;;;7391855;19;20039;-75
2022/09/29 08:31:55;;;;;;;0.60;0.60;;;;;;;;;;7395015;19;20010;-73
2022/09/29 08:34:21;;;;;;;2.75;1.00;;;;;;;;;;7391589;19;20096;-73
2022/09/29 08:36:46;;;;;;;3.08;1.05;;;;;;;;;;7391064;19;20470;-75
2022/09/29 08:39:11;;;;;;;4.90;1.70;;;;;;;;;;7389999;19;20062;-73
2022/09/29 08:41:55;;;;;;;1.83;1.10;;;;;;;;;;7390433;19;19998;-73
2022/09/29 08:44:24;;;;;;;3.60;1.35;;;;;;;;;;7388763;19;20006;-73
2022/09/29 08:47:20;;;;;;;1.83;0.93;;;;;;;;;;7388012;19;20006;-73
2022/09/29 08:49:56;;;;;;;1.00;0.93;;;;;;;;;;7389997;19;20002;-73
2022/09/29 08:52:28;;;;;;;0.70;0.70;;;;;;;;;;7389676;19;20074;-73
2022/09/29 08:55:37;;;;;;;1.30;0.80;;;;;;;;;;7390705;19;20014;-73
2022/09/29 08:58:02;;;;;;;0.80;0.80;;;;;;;;;;7392107;19;20014;-73
2022/09/29 09:00:40;;;;;;;0.70;0.60;;;;;;;;;;7393926;19;20483;-74
2022/09/29 09:03:33;;;;;;;1.00;0.80;;;;;;;;;;7391447;19;20341;-74
2022/09/29 09:06:07;;;;;;;1.55;0.90;;;;;;;;;;7390370;19;20013;-73
2022/09/29 09:08:54;;;;;;;1.25;0.52;;;;;;;;;;7383729;19;20345;-74
2022/09/29 09:11:44;;;;;;;1.45;0.75;;;;;;;;;;7390507;19;20026;-74
2022/09/29 09:14:17;;;;;;;0.50;0.50;;;;;;;;;;7390127;19;20022;-73
2022/09/29 09:17:02;;;;;;;0.70;0.65;;;;;;;;;;7382100;19;20424;-75
2022/09/29 09:19:54;;;;;;;0.60;0.60;;;;;;;;;;7389834;19;20050;-74
2022/09/29 09:22:37;;;;;;;2.13;0.38;;;;;;;;;;7392102;19;19998;-73
2022/09/29 09:25:30;;;;;;;0.77;0.57;;;;;;;;;;7384470;19;20031;-73
2022/09/29 09:28:03;;;;;;;0.50;0.50;;;;;;;;;;7390676;19;20011;-74
2022/09/29 09:30:38;;;;;;;0.60;0.60;;;;;;;;;;7392786;19;20010;-74
2022/09/29 09:33:13;;;;;;;0.90;0.45;;;;;;;;;;7394504;19;20400;-73
2022/09/29 09:35:41;;;;;;;;;;;;;;;;;;7392284;19;20022;-76
2022/09/29 09:38:24;;;;;;;0.65;0.50;;;;;;;;;;7388308;19;19914;-74
2022/09/29 09:40:53;;;;;;;2.50;0.60;;;;;;;;;;7390965;19;20447;-74
2022/09/29 09:43:41;;;;;;;0.73;0.70;;;;;;;;;;7389414;19;20085;-73
2022/09/29 09:46:19;;;;;;;0.50;0.50;;;;;;;;;;7389283;19;20014;-74
2022/09/29 09:48:57;;;;;;;2.55;0.45;;;;;;;;;;7391784;19;20011;-74
2022/09/29 09:51:45;;;;;;;1.23;0.60;;;;;;;;;;7387294;19;20007;-73
2022/09/29 09:54:33;;;;;;;0.65;0.65;;;;;;;;;;7388505;19;20443;-74
2022/09/29 09:57:19;;;;;;;3.22;1.00;;;;;;;;;;7386317;19;20343;-74
2022/09/29 09:59:59;;;;;;;0.50;0.50;;;;;;;;;;7387341;19;20456;-74
2022/09/29 10:02:25;;;;;;;1.50;0.95;;;;;;;;;;7391790;19;20397;-74
2022/09/29 10:04:52;;;;;;;0.60;0.60;;;;;;;;;;7394628;19;20506;-74
2022/09/29 10:07:22;;;;;;;0.57;0.57;;;;;;;;;;7400556;19;20101;-74
2022/09/29 10:09:49;;;;;;;0.63;0.63;;;;;;;;;;7397813;19;20034;-75
2022/09/29 10:12:19;;;;;;;0.65;0.47;;;;;;;;;;7395707;19;20011;-74
2022/09/29 10:15:17;;;;;;;0.88;0.80;;;;;;;;;;7398934;19;20006;-75
2022/09/29 10:17:47;;;;;;;0.40;0.40;;;;;;;;;;7397041;19;20514;-75
2022/09/29 10:20:12;;;;;;;0.75;0.68;;;;;;;;;;7393808;19;20090;-75
2022/09/29 10:22:38;;;;;;;0.85;0.80;;;;;;;;;;7394718;19;20045;-75
2022/09/29 10:25:18;;;;;;;1.08;0.70;;;;;;;;;;7390987;19;20007;-74
2022/09/29 10:27:52;;;;;;;1.08;0.70;;;;;;;;;;7395805;19;20014;-75
2022/09/29 10:30:31;;;;;;;0.75;0.75;;;;;;;;;;7392558;19;20006;-73
2022/09/29 10:32:59;;;;;;;0.47;0.47;;;;;;;;;;7394692;19;20065;-74
2022/09/29 10:35:30;;;;;;;0.50;0.50;;;;;;;;;;7391307;19;20011;-74
2022/09/29 10:38:01;;;;;;;0.85;0.60;;;;;;;;;;7395079;19;20006;-74
2022/09/29 10:40:27;;;;;;;1.15;0.50;;;;;;;;;;7392755;19;20017;-73
2022/09/29 10:42:54;;;;;;;0.57;0.57;;;;;;;;;;7394975;19;20002;-74
2022/09/29 10:45:22;;;;;;;0.65;0.60;;;;;;;;;;7390825;19;20025;-73
2022/09/29 10:47:56;;;;;;;0.65;0.52;;;;;;;;;;7393025;19;20014;-74
2022/09/29 10:50:30;;;;;;;1.50;0.80;;;;;;;;;;7394399;19;20051;-73
2022/09/29 10:53:03;;;;;;;0.60;0.60;;;;;;;;;;7396187;19;20035;-74
2022/09/29 10:55:35;;;;;;;0.70;0.63;;;;;;;;;;7392333;19;20087;-75
2022/09/29 10:58:17;;;;;;;0.80;0.80;;;;;;;;;;7394370;19;20010;-75
2022/09/29 11:00:42;;;;;;;0.70;0.70;;;;;;;;;;7392151;19;20010;-75
2022/09/29 11:03:18;;;;;;;0.57;0.57;;;;;;;;;;7393608;19;20667;-75
2022/09/29 11:05:53;;;;;;;1.67;0.80;;;;;;;;;;7394007;19;20007;-74
2022/09/29 11:08:20;;;;;;;0.80;0.80;;;;;;;;;;7394318;19;20006;-74
2022/09/29 11:10:46;;;;;;;0.95;0.68;;;;;;;;;;7390032;19;20011;-74
2022/09/29 11:13:34;;;;;;;0.40;0.40;;;;;;;;;;7395658;19;20005;-75
2022/09/29 11:16:15;;;;;;;2.15;0.70;;;;;;;;;;7391259;19;20010;-74
2022/09/29 11:18:43;;;;;;;0.55;0.55;;;;;;;;;;7386205;19;20010;-74
2022/09/29 11:21:20;;;;;;;0.60;0.52;;;;;;;;;;7392024;19;20499;-75
2022/09/29 11:24:04;;;;;;;0.50;0.50;;;;;;;;;;7392147;19;20010;-73
2022/09/29 11:26:45;;;;;;;1.58;0.52;;;;;;;;;;7389346;19;20012;-74
2022/09/29 11:29:32;;;;;;;2.05;0.75;;;;;;;;;;7391101;19;20010;-74
2022/09/29 11:32:16;;;;;;;0.75;0.60;;;;;;;;;;7396497;19;20002;-75
2022/09/29 11:35:04;;;;;;;0.55;0.55;;;;;;;;;;7394958;19;20021;-75
2022/09/29 11:37:48;;;;;;;1.17;0.60;;;;;;;;;;7394439;19;20002;-74
2022/09/29 11:40:21;;;;;;;0.47;0.47;;;;;;;;;;7393543;19;20013;-75
2022/09/29 11:43:21;;;;;;;2.10;0.70;;;;;;;;;;7395215;19;20047;-74
2022/09/29 11:46:06;;;;;;;0.85;0.80;;;;;;;;;;7392059;19;20022;-74
2022/09/29 11:49:03;;;;;;;0.80;0.80;;;;;;;;;;7393760;19;20007;-74
2022/09/29 11:51:37;;;;;;;0.98;0.80;;;;;;;;;;7392074;19;20602;-74
2022/09/29 11:54:22;;;;;;;1.07;0.70;;;;;;;;;;7393187;19;20550;-74
2022/09/29 11:56:58;;;;;;;0.88;0.70;;;;;;;;;;7389893;19;20011;-74
2022/09/29 11:59:35;;;;;;;1.33;0.80;;;;;;;;;;7393440;19;20014;-74
2022/09/29 12:02:23;;;;;;;0.85;0.70;;;;;;;;;;7394133;19;20034;-74
2022/09/29 12:05:04;;;;;;;1.35;0.90;;;;;;;;;;7393582;19;20010;-74
2022/09/29 12:08:00;;;;;;;0.50;0.50;;;;;;;;;;7390051;19;20471;-73
2022/09/29 12:10:25;;;;;;;;;;;;;;;;;;7394382;19;20006;-74
2022/09/29 12:13:02;;;;;;;0.50;0.50;;;;;;;;;;7392724;19;20293;-74
2022/09/29 12:16:02;;;;;;;0.70;0.50;;;;;;;;;;7394463;19;20007;-74
2022/09/29 12:18:41;;;;;;;0.70;0.45;;;;;;;;;;7393695;19;20010;-74
2022/09/29 12:21:09;;;;;;;0.38;0.38;;;;;;;;;;7396035;19;20055;-73
2022/09/29 12:23:37;;;;;;;0.70;0.40;;;;;;;;;;7396440;19;20503;-74
2022/09/29 12:26:12;;;;;;;0.73;0.43;;;;;;;;;;7389185;19;20037;-74
2022/09/29 12:28:46;;;;;;;0.43;0.40;;;;;;;;;;7391465;19;20018;-74
2022/09/29 12:31:20;;;;;;;0.40;0.40;;;;;;;;;;7392015;19;20035;-73
2022/09/29 12:33:59;;;;;;;1.67;0.50;;;;;;;;;;7387049;19;20791;-74
2022/09/29 12:36:45;;;;;;;2.47;0.60;;;;;;;;;;7388709;19;20015;-74
2022/09/29 12:39:28;;;;;;;1.95;1.60;;;;;;;;;;7392525;19;20073;-74
2022/09/29 12:42:07;;;;;;;2.28;0.70;;;;;;;;;;7396203;19;20050;-73
2022/09/29 12:44:39;;;;;;;0.68;0.68;;;;;;;;;;7391094;19;20011;-74
2022/09/29 12:47:42;;;;;;;0.30;0.30;;;;;;;;;;7396333;19;20420;-74
2022/09/29 12:50:17;;;;;;;0.40;0.40;;;;;;;;;;7395460;19;20014;-75
2022/09/29 12:52:45;;;;;;;;;;;;;;;;;;7395690;19;20002;-73
2022/09/29 12:55:19;;;;;;;0.57;0.45;;;;;;;;;;7390462;19;19931;-73
2022/09/29 12:57:47;;;;;;;0.55;0.45;;;;;;;;;;7394340;19;20010;-73
2022/09/29 13:00:17;;;;;;;0.60;0.60;;;;;;;;;;7387883;19;20092;-75
2022/09/29 13:03:04;;;;;;;0.70;0.60;;;;;;;;;;7394116;19;20003;-73
2022/09/29 13:05:54;;;;;;;1.10;0.80;;;;;;;;;;7391763;19;20013;-74
2022/09/29 13:08:28;;;;;;;0.68;0.47;;;;;;;;;;7391523;19;20005;-73
2022/09/29 13:11:12;;;;;;;0.57;0.38;;;;;;;;;;7388016;19;20011;-75
2022/09/29 13:14:02;;;;;;;0.52;0.50;;;;;;;;;;7393227;19;20002;-74
2022/09/29 13:16:47;;;;;;;1.00;0.55;;;;;;;;;;7390180;19;20015;-74
2022/09/29 13:19:15;;;;;;;0.80;0.80;;;;;;;;;;7393089;19;20003;-74
2022/09/29 13:21:58;;;;;;;0.50;0.50;;;;;;;;;;7393188;19;20007;-73
2022/09/29 13:24:45;;;;;;;0.90;0.82;;;;;;;;;;7386255;19;20018;-73
2022/09/29 13:27:28;;;;;;;0.90;0.80;;;;;;;;;;7392912;19;20013;-73
2022/09/29 13:30:03;;;;;;;1.23;0.50;;;;;;;;;;7389506;19;20018;-73
2022/09/29 13:32:31;;;;;;;1.55;0.82;;;;;;;;;;7389758;19;19999;-73
2022/09/29 13:34:59;;;;;;;1.13;0.82;;;;;;;;;;7388151;19;20026;-75
2022/09/29 13:37:41;;;;;;;0.45;0.45;;;;;;;;;;7389262;19;20006;-73
2022/09/29 13:40:08;;;;;;;1.42;0.85;;;;;;;;;;7392616;19;20014;-73
2022/09/29 13:42:39;;;;;;;0.60;0.60;;;;;;;;;;7393293;19;20039;-73
2022/09/29 13:45:27;;;;;;;1.05;0.85;;;;;;;;;;7386694;19;20010;-74
2022/09/29 13:47:54;;;;;;;0.80;0.75;;;;;;;;;;7391503;19;20020;-74
2022/09/29 13:50:43;;;;;;;0.95;0.52;;;;;;;;;;7397387;19;20119;-74
2022/09/29 13:53:27;;;;;;;1.95;0.70;;;;;;;;;;7399578;19;20646;-73
2022/09/29 13:55:52;;;;;;;0.60;0.60;;;;;;;;;;7389124;19;20018;-73
2022/09/29 13:58:30;;;;;;;0.43;0.43;;;;;;;;;;7394646;19;20023;-74
2022/09/29 14:00:58;;;;;;;0.63;0.40;;;;;;;;;;7392951;19;20014;-74
2022/09/29 14:03:37;;;;;;;2.17;0.65;;;;;;;;;;7393551;19;20035;-72
2022/09/29 14:06:05;;;;;;;1.02;0.57;;;;;;;;;;7394602;19;20013;-73
2022/09/29 14:08:37;;;;;;;0.50;0.50;;;;;;;;;;7394243;19;20854;-73
2022/09/29 14:11:11;;;;;;;2.35;0.47;;;;;;;;;;7392824;19;20021;-73
2022/09/29 14:13:43;;;;;;;0.60;0.60;;;;;;;;;;7395317;19;20011;-72
2022/09/29 14:16:16;;;;;;;0.70;0.70;;;;;;;;;;7393474;19;20007;-72
2022/09/29 14:18:51;;;;;;;0.68;0.68;;;;;;;;;;7393737;19;20039;-74
2022/09/29 14:21:46;;;;;;;0.65;0.65;;;;;;;;;;7390483;19;20074;-73
2022/09/29 14:24:40;;;;;;;0.65;0.65;;;;;;;;;;7393030;19;20041;-73
2022/09/29 14:27:31;;;;;;;0.75;0.70;;;;;;;;;;7395167;19;20014;-74
2022/09/29 14:30:02;;;;;;;1.08;0.50;;;;;;;;;;7396188;19;20082;-74
2022/09/29 14:32:46;;;;;;;0.70;0.50;;;;;;;;;;7392635;19;20015;-74
2022/09/29 14:35:20;;;;;;;0.80;0.50;;;;;;;;;;7396397;19;20007;-73
2022/09/29 14:37:56;;;;;;;0.73;0.50;;;;;;;;;;7397864;19;20031;-74
2022/09/29 14:40:27;;;;;;;0.40;0.40;;;;;;;;;;7398455;19;20014;-73
2022/09/29 14:43:11;;;;;;;3.13;0.95;;;;;;;;;;7398343;19;20016;-74
2022/09/29 14:52:22;;;;;;;0.60;0.60;;;;;;;;;;7391301;19;20027;-74
2022/09/29 14:55:05;;;;;;;0.68;0.68;;;;;;;;;;7397205;19;20347;-74
2022/09/29 14:57:32;;;;;;;0.50;0.45;;;;;;;;;;7395979;19;20006;-74
2022/09/29 14:59:57;;;;;;;0.45;0.45;;;;;;;;;;7397439;19;20006;-73
2022/09/29 15:02:27;;;;;;;2.38;0.75;;;;;;;;;;7397770;19;20015;-74
2022/09/29 15:04:53;;;;;;;2.85;0.82;;;;;;;;;;7399081;19;20002;-74
2022/09/29 15:07:22;;;;;;;0.50;0.43;;;;;;;;;;7397920;19;20013;-74
2022/09/29 15:09:51;;;;;;;0.50;0.50;;;;;;;;;;7395514;19;20014;-74
2022/09/29 15:12:25;;;;;;;1.63;0.70;;;;;;;;;;7397072;19;20018;-75
2022/09/29 15:14:51;;;;;;;1.02;0.63;;;;;;;;;;7397789;19;20058;-74
2022/09/29 15:17:24;;;;;;;2.20;0.95;;;;;;;;;;7396654;19;20027;-74
2022/09/29 15:19:55;;;;;;;1.38;0.77;;;;;;;;;;7396872;19;20017;-74
2022/09/29 15:22:54;;;;;;;0.80;0.70;;;;;;;;;;7397607;19;20013;-74